Time;durP1;ratioP1;P1;durP2;ratioP2;P2;SDS_P1;SDS_P2;PMS_P1;PMS_P2;Temp;Humidity;BMP_temperature;BMP_pressure;BME280_temperature;BME280_humidity;BME280_pressure;Samples;Min_cycle;Max_cycle;Signal;HPM_P1;HPM_P2
2022/06/20 00:01:01;;;;;;;7.60;6.90;;;22.40;99.90;;;;;;5075225;28;20450;-88
2022/06/20 00:03:31;;;;;;;8.20;6.73;;;22.30;99.90;;;;;;5075249;28;20583;-88
2022/06/20 00:05:58;;;;;;;9.80;6.80;;;;;;;;;;5075312;28;20442;-89
2022/06/20 00:08:27;;;;;;;12.90;7.40;;;;;;;;;;5074053;28;20458;-87
2022/06/20 00:10:55;;;;;;;7.40;6.40;;;;;;;;;;5076096;28;21080;-88
2022/06/20 00:13:25;;;;;;;7.60;6.53;;;22.00;99.90;;;;;;5075649;28;20450;-88
2022/06/20 00:15:57;;;;;;;8.67;6.90;;;22.00;99.90;;;;;;5075505;28;20810;-89
2022/06/20 00:18:24;;;;;;;7.93;6.77;;;;;;;;;;5075137;28;21000;-88
2022/06/20 00:20:51;;;;;;;9.57;6.87;;;;;;;;;;5075287;28;20476;-87
2022/06/20 00:23:18;;;;;;;7.93;5.73;;;;;;;;;;5073801;28;20438;-88
2022/06/20 00:25:45;;;;;;;7.27;6.60;;;;;;;;;;5074802;28;20453;-88
2022/06/20 00:28:13;;;;;;;12.73;7.33;;;;;;;;;;5074832;28;20457;-88
2022/06/20 00:30:40;;;;;;;8.50;7.60;;;;;;;;;;5074851;28;20449;-89
2022/06/20 00:33:09;;;;;;;7.50;6.70;;;21.40;99.90;;;;;;5075063;28;20468;-88
2022/06/20 00:35:37;;;;;;;10.53;7.40;;;;;;;;;;5075162;28;20803;-88
2022/06/20 00:38:06;;;;;;;8.60;6.00;;;21.40;99.90;;;;;;5073022;28;20523;-88
2022/06/20 00:40:37;;;;;;;10.27;7.57;;;21.60;99.90;;;;;;5074355;28;20468;-89
2022/06/20 00:43:06;;;;;;;11.60;6.70;;;21.40;99.90;;;;;;5074954;28;20445;-89
2022/06/20 00:45:39;;;;;;;7.80;6.60;;;21.40;99.90;;;;;;5074845;28;20457;-89
2022/06/20 00:48:11;;;;;;;9.40;7.30;;;21.40;99.90;;;;;;5074546;28;20453;-88
2022/06/20 00:50:38;;;;;;;8.97;6.90;;;;;;;;;;5074875;28;20449;-90
2022/06/20 00:53:12;;;;;;;13.20;7.37;;;21.50;99.90;;;;;;5073345;28;20453;-90
2022/06/20 00:55:47;;;;;;;10.77;6.63;;;21.50;99.90;;;;;;5074202;28;20466;-89
2022/06/20 00:58:23;;;;;;;8.60;7.30;;;21.70;99.90;;;;;;5074094;28;20492;-89
2022/06/20 01:00:51;;;;;;;13.00;8.10;;;;;;;;;;5074267;28;20456;-85
2022/06/20 01:03:22;;;;;;;14.00;8.63;;;21.60;99.90;;;;;;5074041;28;20449;-84
2022/06/20 01:05:54;;;;;;;11.83;8.50;;;21.50;99.90;;;;;;5074226;28;20473;-84
2022/06/20 01:08:26;;;;;;;19.17;9.20;;;21.50;99.90;;;;;;5073171;28;20449;-84
2022/06/20 01:10:57;;;;;;;11.30;9.40;;;21.40;99.90;;;;;;5073770;28;20469;-84
2022/06/20 01:13:24;;;;;;;12.23;8.50;;;21.00;99.90;;;;;;5073906;28;20445;-85
2022/06/20 01:15:52;;;;;;;15.93;8.77;;;;;;;;;;5074893;28;20450;-83
2022/06/20 01:18:25;;;;;;;12.07;9.30;;;20.70;99.90;;;;;;5073637;28;20497;-84
2022/06/20 01:20:54;;;;;;;18.03;9.00;;;20.50;99.90;;;;;;5073765;28;20450;-84
2022/06/20 01:23:39;;;;;;;16.67;9.47;;;20.50;99.90;;;;;;5072616;28;20445;-84
2022/06/20 01:26:18;;;;;;;10.43;8.23;;;20.50;99.90;;;;;;5073419;28;20843;-83
2022/06/20 01:28:50;;;;;;;11.17;8.37;;;20.30;99.90;;;;;;5073591;28;20929;-84
2022/06/20 01:31:20;;;;;;;11.83;9.87;;;20.10;99.90;;;;;;5073457;28;20450;-84
2022/06/20 01:33:48;;;;;;;17.37;9.87;;;20.10;99.90;;;;;;5073493;28;20450;-83
2022/06/20 01:39:02;;;;;;;12.53;8.47;;;;;;;;;;5073465;28;20543;-84
2022/06/20 01:44:19;;;;;;;12.87;9.40;;;19.90;99.90;;;;;;5073331;28;20544;-84
2022/06/20 01:46:46;;;;;;;12.20;10.73;;;;;;;;;;5070740;28;20446;-84
2022/06/20 01:49:17;;;;;;;16.90;11.93;;;19.90;99.90;;;;;;5072868;28;20445;-85
2022/06/20 01:51:49;;;;;;;12.03;8.50;;;19.90;99.90;;;;;;5071833;28;20453;-84
2022/06/20 01:54:17;;;;;;;11.23;8.50;;;19.80;99.90;;;;;;5073403;28;20466;-84
2022/06/20 01:56:47;;;;;;;14.20;8.70;;;19.80;99.90;;;;;;5073475;28;20453;-85
2022/06/20 01:59:20;;;;;;;12.27;8.43;;;19.70;99.90;;;;;;5073536;28;20807;-85
2022/06/20 02:01:49;;;;;;;12.97;9.03;;;19.80;99.90;;;;;;5073390;28;20799;-85
2022/06/20 02:04:26;;;;;;;12.60;8.43;;;19.80;99.90;;;;;;5073374;28;20454;-84
2022/06/20 02:06:54;;;;;;;11.50;9.00;;;;;;;;;;5072048;28;20445;-84
2022/06/20 02:09:21;;;;;;;11.30;8.87;;;;;;;;;;5073128;28;20477;-85
2022/06/20 02:11:49;;;;;;;11.80;8.60;;;19.90;99.90;;;;;;5090599;28;20453;-84
2022/06/20 02:14:23;;;;;;;15.23;8.80;;;19.90;99.90;;;;;;5092252;28;20454;-85
2022/06/20 02:16:55;;;;;;;9.10;8.23;;;19.90;99.90;;;;;;5073386;28;20463;-85
2022/06/20 02:19:28;;;;;;;10.43;7.50;;;20.00;99.90;;;;;;5073394;28;20500;-85
2022/06/20 02:21:57;;;;;;;11.87;7.70;;;20.00;99.90;;;;;;5071930;28;20445;-85
2022/06/20 02:24:26;;;;;;;10.27;8.03;;;19.80;99.90;;;;;;5073133;28;20446;-85
2022/06/20 02:26:56;;;;;;;11.67;7.70;;;19.90;99.90;;;;;;5073091;28;20454;-85
2022/06/20 02:29:27;;;;;;;9.73;6.63;;;19.90;99.90;;;;;;5073167;28;20819;-85
2022/06/20 02:31:56;;;;;;;17.30;7.20;;;19.90;99.90;;;;;;5073086;28;20446;-85
2022/06/20 02:34:24;;;;;;;9.60;6.73;;;;;;;;;;5073141;28;20449;-84
2022/06/20 02:36:51;;;;;;;9.17;6.10;;;19.80;99.90;;;;;;5071911;28;20442;-84
2022/06/20 02:39:18;;;;;;;13.30;6.70;;;;;;;;;;5072927;28;20500;-85
2022/06/20 02:41:49;;;;;;;11.70;5.83;;;20.20;99.90;;;;;;5072877;28;20450;-85
2022/06/20 02:44:18;;;;;;;11.57;6.30;;;20.40;99.90;;;;;;5073138;28;20450;-84
2022/06/20 02:46:49;;;;;;;12.33;7.20;;;20.50;99.90;;;;;;5073080;28;20450;-85
2022/06/20 02:49:18;;;;;;;9.70;6.23;;;20.50;99.90;;;;;;5072966;28;20454;-84
2022/06/20 02:51:49;;;;;;;8.17;5.83;;;20.40;99.90;;;;;;5071657;28;20450;-84
2022/06/20 02:54:17;;;;;;;10.80;6.73;;;;;;;;;;5070743;28;20497;-84
2022/06/20 02:56:47;;;;;;;10.03;6.13;;;20.30;99.90;;;;;;5072823;28;20450;-87
2022/06/20 02:59:17;;;;;;;10.63;6.63;;;20.40;99.90;;;;;;5073002;28;20493;-85
2022/06/20 03:01:49;;;;;;;11.17;6.03;;;20.60;99.90;;;;;;5075996;28;20453;-84
2022/06/20 03:04:17;;;;;;;10.77;6.00;;;20.70;99.90;;;;;;5076794;28;20955;-84
2022/06/20 03:06:47;;;;;;;5.87;5.23;;;20.70;99.90;;;;;;5075375;28;20457;-84
2022/06/20 03:09:18;;;;;;;10.90;6.00;;;20.70;99.90;;;;;;5076717;28;20894;-84
2022/06/20 03:11:45;;;;;;;8.90;6.23;;;;;;;;;;5074591;28;20460;-84
2022/06/20 03:14:15;;;;;;;10.20;5.77;;;20.70;99.90;;;;;;5076376;28;20455;-85
2022/06/20 03:16:43;;;;;;;11.73;4.80;;;;;;;;;;5076402;28;20453;-89
2022/06/20 03:19:17;;;;;;;10.17;6.10;;;21.20;99.90;;;;;;5076365;28;21101;-84
2022/06/20 03:21:45;;;;;;;7.27;6.03;;;;;;;;;;5075058;28;20531;-84
2022/06/20 03:24:17;;;;;;;6.57;5.30;;;21.00;99.90;;;;;;5076204;28;20445;-84
2022/06/20 03:26:44;;;;;;;8.17;5.20;;;;;;;;;;5076418;28;20453;-84
2022/06/20 03:29:13;;;;;;;11.23;6.33;;;20.70;99.90;;;;;;5076256;28;20464;-85
2022/06/20 03:31:40;;;;;;;9.20;6.80;;;;;;;;;;5076136;28;20829;-85
2022/06/20 03:34:07;;;;;;;11.23;6.47;;;;;;;;;;5075963;28;20465;-86
2022/06/20 03:36:36;;;;;;;8.90;5.93;;;20.30;99.90;;;;;;5074702;28;20471;-87
2022/06/20 03:39:05;;;;;;;12.43;6.57;;;20.30;99.90;;;;;;5075821;28;20489;-85
2022/06/20 03:41:33;;;;;;;11.83;6.17;;;20.30;99.90;;;;;;5076075;28;20462;-90
2022/06/20 03:44:04;;;;;;;15.50;6.20;;;20.80;99.90;;;;;;5075888;28;20987;-87
2022/06/20 03:46:39;;;;;;;14.77;8.20;;;20.20;99.90;;;;;;5075883;28;20845;-87
2022/06/20 03:49:11;;;;;;;16.73;6.90;;;20.00;99.90;;;;;;5075799;28;20503;-88
2022/06/20 03:51:45;;;;;;;9.27;6.67;;;19.70;99.90;;;;;;5074554;28;20456;-89
2022/06/20 03:54:19;;;;;;;9.00;8.00;;;19.70;99.90;;;;;;5076845;28;20480;-88
2022/06/20 03:56:52;;;;;;;12.67;7.30;;;19.60;99.90;;;;;;5075281;28;20452;-87
2022/06/20 03:59:23;;;;;;;9.33;7.70;;;19.50;99.90;;;;;;5075354;28;20572;-86
2022/06/20 04:01:54;;;;;;;8.50;7.70;;;19.40;99.90;;;;;;5083295;28;20448;-87
2022/06/20 04:04:28;;;;;;;14.27;8.57;;;19.40;99.90;;;;;;5095872;28;20808;-88
2022/06/20 04:07:02;;;;;;;11.37;8.00;;;19.30;99.90;;;;;;5082469;28;20524;-85
2022/06/20 04:12:22;;;;;;;11.53;7.97;;;19.30;99.90;;;;;;5074517;28;20520;-88
2022/06/20 04:14:55;;;;;;;12.90;8.50;;;19.20;99.90;;;;;;5075393;28;20442;-89
2022/06/20 04:20:25;;;;;;;10.37;8.53;;;18.90;99.90;;;;;;5076563;28;20539;-90
2022/06/20 04:22:57;;;;;;;11.20;8.33;;;18.90;99.90;;;;;;5075791;28;20449;-92
2022/06/20 04:25:31;;;;;;;11.80;8.43;;;18.80;99.90;;;;;;5076745;28;20830;-87
2022/06/20 04:28:05;;;;;;;11.00;8.53;;;18.90;99.90;;;;;;5076040;28;20448;-88
2022/06/20 04:30:41;;;;;;;12.67;8.00;;;18.90;99.90;;;;;;5075841;28;20797;-88
2022/06/20 04:33:16;;;;;;;11.83;8.57;;;18.70;99.90;;;;;;5075471;28;20448;-88
2022/06/20 04:35:53;;;;;;;15.47;9.73;;;17.40;99.90;;;;;;5075486;28;20452;-87
2022/06/20 04:38:25;;;;;;;13.00;7.90;;;18.60;99.90;;;;;;5074322;28;20492;-88
2022/06/20 04:40:59;;;;;;;10.90;9.30;;;18.60;99.90;;;;;;5078889;28;20450;-89
2022/06/20 04:43:32;;;;;;;11.03;7.80;;;18.70;99.90;;;;;;5089448;28;20454;-87
2022/06/20 04:46:14;;;;;;;19.53;10.23;;;18.80;99.90;;;;;;5085897;28;20461;-87
2022/06/20 04:48:41;;;;;;;14.63;8.70;;;;;;;;;;5074865;28;20454;-88
2022/06/20 04:51:13;;;;;;;10.10;8.00;;;18.70;99.90;;;;;;5075332;28;20450;-89
2022/06/20 04:53:45;;;;;;;9.00;6.57;;;18.80;99.90;;;;;;5075753;28;20462;-88
2022/06/20 04:56:15;;;;;;;12.07;9.37;;;18.90;99.90;;;;;;5081188;28;20449;-87
2022/06/20 04:58:46;;;;;;;11.27;7.83;;;19.00;99.90;;;;;;5094575;28;20482;-89
2022/06/20 05:01:13;;;;;;;17.47;8.43;;;;;;;;;;5095050;28;20451;-87
2022/06/20 05:03:43;;;;;;;16.00;9.20;;;19.20;99.90;;;;;;5093428;28;20449;-88
2022/06/20 05:06:18;;;;;;;11.00;8.57;;;19.10;99.90;;;;;;5095120;28;20444;-90
2022/06/20 05:08:49;;;;;;;12.03;7.90;;;19.20;99.90;;;;;;5078876;28;20464;-89
2022/06/20 05:11:20;;;;;;;13.30;8.43;;;19.30;99.90;;;;;;5075206;28;20488;-90
2022/06/20 05:13:51;;;;;;;13.70;8.73;;;19.40;99.90;;;;;;5073828;28;20816;-89
2022/06/20 05:16:23;;;;;;;14.03;9.30;;;19.50;99.90;;;;;;5074333;28;20445;-89
2022/06/20 05:18:53;;;;;;;13.27;8.50;;;19.60;99.90;;;;;;5074159;28;20568;-88
2022/06/20 05:21:25;;;;;;;20.40;9.20;;;19.60;99.90;;;;;;5072157;28;20503;-88
2022/06/20 05:23:57;;;;;;;20.47;8.50;;;19.80;99.90;;;;;;5073725;28;20449;-88
2022/06/20 05:26:27;;;;;;;12.43;8.60;;;19.80;99.90;;;;;;5074008;28;20442;-89
2022/06/20 05:28:57;;;;;;;10.43;8.27;;;19.80;99.90;;;;;;5073926;28;20457;-89
2022/06/20 05:31:29;;;;;;;9.63;8.40;;;19.80;99.90;;;;;;5074267;28;20448;-89
2022/06/20 05:34:03;;;;;;;13.13;8.03;;;19.80;99.90;;;;;;5074267;28;20438;-89
2022/06/20 05:36:33;;;;;;;15.97;9.83;;;19.60;99.90;;;;;;5070500;28;20941;-90
2022/06/20 05:39:05;;;;;;;14.20;7.70;;;19.50;99.90;;;;;;5074009;28;20497;-89
2022/06/20 05:41:32;;;;;;;12.33;8.43;;;;;;;;;;5073865;28;20877;-89
2022/06/20 05:43:59;;;;;;;10.73;7.77;;;;;;;;;;5075377;28;20933;-89
2022/06/20 05:46:31;;;;;;;9.60;6.73;;;19.40;99.90;;;;;;5074086;28;20446;-90
2022/06/20 05:49:04;;;;;;;11.93;7.67;;;19.50;99.90;;;;;;5074302;28;20454;-89
2022/06/20 05:51:36;;;;;;;16.30;9.17;;;19.60;99.90;;;;;;5073341;28;20452;-90
2022/06/20 05:54:10;;;;;;;13.97;8.77;;;19.60;99.90;;;;;;5074426;28;20467;-89
2022/06/20 05:56:41;;;;;;;10.57;7.83;;;19.60;99.90;;;;;;5073555;28;20450;-87
2022/06/20 05:59:19;;;;;;;12.20;9.23;;;;;;;;;;5073570;28;20521;-84
2022/06/20 06:01:46;;;;;;;13.87;9.27;;;;;;;;;;5073200;28;20446;-87
2022/06/20 06:04:20;;;;;;;10.10;8.30;;;19.40;99.90;;;;;;5073066;28;21305;-85
2022/06/20 06:06:51;;;;;;;10.80;8.73;;;19.50;99.90;;;;;;5072199;28;20456;-86
2022/06/20 06:09:25;;;;;;;11.00;8.30;;;19.70;99.90;;;;;;5073152;28;20481;-87
2022/06/20 06:11:56;;;;;;;14.07;8.40;;;19.80;99.90;;;;;;5073387;28;20445;-86
2022/06/20 06:14:27;;;;;;;11.50;8.60;;;20.00;99.90;;;;;;5073596;28;20449;-86
2022/06/20 06:16:59;;;;;;;8.83;8.03;;;20.00;99.90;;;;;;5073602;28;20450;-87
2022/06/20 06:19:34;;;;;;;12.20;8.50;;;20.00;99.90;;;;;;5073648;28;20493;-86
2022/06/20 06:22:04;;;;;;;13.67;8.47;;;20.20;99.90;;;;;;5072496;28;20446;-87
2022/06/20 06:24:35;;;;;;;12.73;8.20;;;20.50;99.90;;;;;;5073204;28;20457;-87
2022/06/20 06:27:05;;;;;;;11.97;8.63;;;20.40;99.90;;;;;;5073160;28;20500;-87
2022/06/20 06:29:38;;;;;;;11.13;8.67;;;20.70;99.90;;;;;;5073245;28;20457;-87
2022/06/20 06:32:15;;;;;;;9.57;8.10;;;20.80;99.90;;;;;;5087325;28;20449;-87
2022/06/20 06:34:49;;;;;;;12.90;9.23;;;21.00;99.90;;;;;;5092936;28;20799;-87
2022/06/20 06:37:20;;;;;;;9.13;8.23;;;20.10;99.90;;;;;;5091857;28;20543;-88
2022/06/20 06:39:53;;;;;;;9.80;8.27;;;21.70;99.90;;;;;;5093014;28;21002;-88
2022/06/20 06:42:20;;;;;;;11.37;7.90;;;;;;;;;;5093697;28;20472;-88
2022/06/20 06:44:50;;;;;;;10.50;7.60;;;21.80;99.90;;;;;;5093099;28;20940;-88
2022/06/20 06:47:22;;;;;;;11.47;8.77;;;22.00;99.90;;;;;;5093447;28;20456;-88
2022/06/20 06:49:54;;;;;;;8.67;7.70;;;22.00;99.90;;;;;;5093766;28;20452;-88
2022/06/20 06:52:29;;;;;;;10.10;9.10;;;21.90;99.90;;;;;;5093463;28;20428;-91
2022/06/20 06:55:00;;;;;;;9.57;8.57;;;21.60;99.90;;;;;;5094390;28;20447;-89
2022/06/20 06:57:33;;;;;;;9.60;8.20;;;21.80;99.90;;;;;;5094987;28;20449;-92
2022/06/20 07:00:21;;;;;;;10.17;8.60;;;22.40;99.90;;;;;;5086809;28;20494;-90
2022/06/20 07:02:52;;;;;;;9.17;7.77;;;22.80;99.90;;;;;;5077003;28;20449;-90
2022/06/20 07:05:27;;;;;;;11.70;7.60;;;23.30;99.90;;;;;;5093098;28;20445;-90
2022/06/20 07:07:58;;;;;;;11.10;8.10;;;23.60;99.90;;;;;;5091557;28;20452;-88
2022/06/20 07:10:34;;;;;;;7.83;7.00;;;23.90;99.90;;;;;;5092483;28;20933;-88
2022/06/20 07:13:06;;;;;;;7.87;7.17;;;24.20;99.90;;;;;;5092835;28;20444;-87
2022/06/20 07:15:34;;;;;;;8.77;7.10;;;24.50;99.90;;;;;;5092787;28;20467;-86
2022/06/20 07:18:04;;;;;;;8.37;7.50;;;24.70;99.90;;;;;;5092794;28;20964;-86
2022/06/20 07:20:34;;;;;;;9.90;7.47;;;24.90;99.90;;;;;;5092428;28;20995;-89
2022/06/20 07:23:04;;;;;;;10.73;7.87;;;25.20;99.90;;;;;;5091643;28;20510;-88
2022/06/20 07:25:49;;;;;;;7.87;7.07;;;25.20;99.90;;;;;;5092783;28;20445;-87
2022/06/20 07:28:34;;;;;;;7.50;6.80;;;25.50;99.90;;;;;;5089100;28;20544;-88
2022/06/20 07:31:16;;;;;;;8.50;7.03;;;25.70;99.90;;;;;;5092590;28;20456;-88
2022/06/20 07:33:48;;;;;;;8.50;7.53;;;26.00;99.90;;;;;;5092737;28;20441;-88
2022/06/20 07:36:20;;;;;;;9.57;7.27;;;25.60;99.90;;;;;;5089109;28;20448;-88
2022/06/20 07:38:54;;;;;;;8.27;5.93;;;25.70;99.90;;;;;;5087123;28;20449;-88
2022/06/20 07:41:27;;;;;;;6.63;5.90;;;26.30;99.90;;;;;;5092855;28;20496;-86
2022/06/20 07:44:01;;;;;;;7.07;6.33;;;26.20;99.90;;;;;;5084429;28;20515;-87
2022/06/20 07:46:35;;;;;;;7.60;7.00;;;26.20;99.90;;;;;;5072509;28;20967;-86
2022/06/20 07:49:06;;;;;;;11.70;6.60;;;26.40;99.90;;;;;;5075515;28;20460;-86
2022/06/20 07:51:37;;;;;;;6.97;6.27;;;26.60;99.90;;;;;;5074480;28;20839;-84
2022/06/20 07:54:10;;;;;;;6.83;6.10;;;26.40;99.90;;;;;;5079748;28;20476;-86
2022/06/20 07:56:44;;;;;;;10.13;7.17;;;26.30;99.90;;;;;;5075950;28;20450;-89
2022/06/20 07:59:15;;;;;;;6.80;6.13;;;26.10;99.90;;;;;;5075993;28;20441;-86
2022/06/20 08:01:48;;;;;;;6.27;5.67;;;26.10;99.90;;;;;;5075717;28;20450;-86
2022/06/20 08:04:19;;;;;;;6.90;6.20;;;25.90;99.90;;;;;;5081231;28;20445;-85
2022/06/20 08:06:51;;;;;;;6.53;5.80;;;26.20;99.90;;;;;;5094629;28;20448;-84
2022/06/20 08:09:21;;;;;;;7.57;5.80;;;26.60;99.90;;;;;;5095775;28;20472;-87
2022/06/20 08:11:57;;;;;;;6.50;5.90;;;26.70;99.90;;;;;;5092571;28;20454;-85
2022/06/20 08:14:31;;;;;;;7.07;6.27;;;26.80;99.90;;;;;;5078988;28;20473;-85
2022/06/20 08:17:01;;;;;;;7.07;6.07;;;27.30;99.90;;;;;;5075265;28;20445;-85
2022/06/20 08:19:30;;;;;;;7.67;5.93;;;27.40;99.90;;;;;;5074636;28;20444;-85
2022/06/20 08:22:02;;;;;;;6.60;5.57;;;27.60;99.90;;;;;;5073728;28;20450;-84
2022/06/20 08:24:33;;;;;;;7.93;5.77;;;27.50;99.90;;;;;;5075050;28;20519;-83
2022/06/20 08:27:06;;;;;;;7.53;6.73;;;27.40;99.90;;;;;;5075331;28;20847;-83
2022/06/20 08:29:37;;;;;;;7.50;6.37;;;27.90;99.00;;;;;;5075059;28;20937;-84
2022/06/20 08:32:13;;;;;;;8.47;6.50;;;28.20;98.10;;;;;;5076357;28;21002;-82
2022/06/20 08:34:46;;;;;;;6.00;5.40;;;27.80;99.50;;;;;;5075078;28;20445;-84
2022/06/20 08:37:21;;;;;;;6.27;5.60;;;27.20;99.70;;;;;;5074362;28;20453;-87
2022/06/20 08:39:55;;;;;;;6.20;5.03;;;27.30;99.40;;;;;;5074817;28;20571;-86
2022/06/20 08:42:50;;;;;;;7.83;5.30;;;27.50;99.90;;;;;;5076186;28;20453;-89
2022/06/20 08:45:38;;;;;;;9.33;5.53;;;28.10;98.80;;;;;;5074811;28;20944;-88
2022/06/20 08:48:37;;;;;;;7.17;6.10;;;27.80;95.70;;;;;;5074817;28;20956;-86
2022/06/20 08:55:07;;;;;;;7.40;5.20;;;29.00;90.70;;;;;;5069578;28;20476;-88
2022/06/20 08:57:46;;;;;;;8.17;5.67;;;29.00;96.30;;;;;;5074986;28;20528;-87
2022/06/20 09:00:19;;;;;;;9.20;5.73;;;29.10;93.30;;;;;;5074480;28;20485;-87
2022/06/20 09:03:09;;;;;;;5.73;5.17;;;29.40;91.20;;;;;;5074598;28;20452;-87
2022/06/20 09:05:59;;;;;;;6.53;5.70;;;29.60;92.40;;;;;;5074789;28;20450;-88
2022/06/20 09:08:54;;;;;;;7.73;5.73;;;29.00;90.20;;;;;;5073689;28;20437;-88
2022/06/20 09:11:34;;;;;;;6.63;6.03;;;29.10;94.00;;;;;;5074415;28;20541;-90
2022/06/20 09:14:28;;;;;;;6.50;5.90;;;29.60;90.80;;;;;;5075918;28;20433;-84
2022/06/20 09:17:12;;;;;;;7.07;5.87;;;29.60;94.70;;;;;;5074840;28;20826;-87
2022/06/20 09:20:00;;;;;;;7.30;5.70;;;29.10;92.60;;;;;;5075157;28;20456;-87
2022/06/20 09:22:44;;;;;;;8.70;6.10;;;28.70;93.70;;;;;;5072963;28;20460;-87
2022/06/20 09:25:25;;;;;;;6.40;5.90;;;29.20;94.90;;;;;;5074730;28;20453;-86
2022/06/20 09:28:02;;;;;;;6.00;5.50;;;29.70;94.50;;;;;;5074233;28;20457;-88
2022/06/20 09:30:38;;;;;;;6.17;5.57;;;29.20;92.70;;;;;;5074191;28;20446;-84
2022/06/20 09:33:35;;;;;;;5.83;5.27;;;30.30;88.40;;;;;;5073764;28;20995;-87
2022/06/20 09:36:52;;;;;;;10.17;6.40;;;28.70;93.50;;;;;;5065311;28;20450;-89
2022/06/20 09:39:35;;;;;;;5.37;4.87;;;27.70;97.60;;;;;;5074218;28;20445;-89
2022/06/20 09:42:12;;;;;;;6.87;6.07;;;27.30;97.10;;;;;;5074319;28;20453;-90
2022/06/20 09:44:49;;;;;;;7.03;5.80;;;27.50;95.80;;;;;;5074277;28;20453;-88
2022/06/20 09:47:29;;;;;;;6.80;6.20;;;27.20;98.50;;;;;;5073992;28;20456;-90
2022/06/20 09:50:08;;;;;;;8.47;5.70;;;27.50;96.80;;;;;;5074098;28;20457;-89
2022/06/20 09:52:47;;;;;;;6.80;6.20;;;27.50;98.30;;;;;;5073390;28;20552;-91
2022/06/20 09:55:21;;;;;;;8.90;6.20;;;27.40;98.90;;;;;;5069742;28;20446;-85
2022/06/20 09:57:55;;;;;;;7.00;6.30;;;27.90;96.80;;;;;;5073919;28;20438;-85
2022/06/20 10:00:27;;;;;;;7.87;5.23;;;27.50;96.20;;;;;;5073692;28;20489;-86
2022/06/20 10:03:03;;;;;;;6.37;5.77;;;27.10;97.50;;;;;;5073707;28;20457;-86
2022/06/20 10:05:42;;;;;;;7.97;5.30;;;28.20;92.50;;;;;;5090765;28;20429;-85
2022/06/20 10:08:19;;;;;;;5.93;5.30;;;28.20;96.40;;;;;;5093059;28;20481;-83
2022/06/20 10:10:51;;;;;;;6.63;5.67;;;28.40;95.80;;;;;;5072972;28;20473;-84
2022/06/20 10:13:26;;;;;;;7.67;5.70;;;29.10;96.10;;;;;;5073592;28;20449;-86
2022/06/20 10:16:03;;;;;;;10.37;7.00;;;29.00;98.00;;;;;;5073146;28;20485;-85
2022/06/20 10:18:39;;;;;;;6.83;6.13;;;29.70;98.20;;;;;;5073280;28;20446;-88
2022/06/20 10:21:10;;;;;;;6.37;5.77;;;30.00;95.80;;;;;;5073138;28;20499;-85
2022/06/20 10:23:55;;;;;;;6.30;5.20;;;30.60;94.10;;;;;;5075320;28;20446;-84
2022/06/20 10:26:38;;;;;;;6.97;5.63;;;29.90;95.50;;;;;;5092195;28;20448;-85
2022/06/20 10:29:16;;;;;;;6.53;5.43;;;29.60;94.80;;;;;;5077122;28;20441;-85
2022/06/20 10:31:46;;;;;;;5.93;5.43;;;29.10;92.30;;;;;;5073103;28;20460;-82
2022/06/20 10:34:22;;;;;;;6.17;5.43;;;29.80;92.60;;;;;;5072872;28;20946;-82
2022/06/20 10:36:51;;;;;;;8.80;4.97;;;30.30;92.10;;;;;;5071780;28;20453;-85
2022/06/20 10:39:28;;;;;;;5.53;5.00;;;30.10;81.90;;;;;;5072518;28;20448;-86
2022/06/20 10:42:08;;;;;;;5.63;4.70;;;29.90;88.90;;;;;;5072814;28;20516;-82
2022/06/20 10:44:47;;;;;;;5.70;4.70;;;28.80;80.70;;;;;;5073284;28;20452;-83
2022/06/20 10:47:20;;;;;;;7.87;4.63;;;28.70;90.80;;;;;;5072992;28;20800;-86
2022/06/20 10:50:17;;;;;;;7.80;4.93;;;28.80;92.80;;;;;;5073053;28;20450;-83
2022/06/20 10:52:54;;;;;;;6.73;4.67;;;29.00;92.90;;;;;;5065217;28;20446;-84
2022/06/20 10:55:33;;;;;;;3.80;3.43;;;29.40;89.50;;;;;;5073022;28;20510;-84
2022/06/20 10:58:10;;;;;;;3.30;3.00;;;29.60;90.90;;;;;;5072734;28;20461;-82
2022/06/20 11:00:42;;;;;;;5.30;4.73;;;29.60;93.90;;;;;;5072871;28;20488;-83
2022/06/20 11:03:42;;;;;;;4.97;3.40;;;29.60;90.00;;;;;;5072723;28;20484;-83
2022/06/20 11:06:23;;;;;;;48.97;43.63;;;29.20;92.10;;;;;;5070680;28;20453;-84
2022/06/20 11:08:54;;;;;;;8.73;6.60;;;;;;;;;;5072273;28;20892;-83
2022/06/20 11:11:30;;;;;;;4.33;3.60;;;;;;;;;;5072484;28;20453;-85
2022/06/20 11:14:00;;;;;;;6.33;5.13;;;;;;;;;;5072840;28;20453;-84
2022/06/20 11:16:33;;;;;;;34.80;31.70;;;;;;;;;;5073431;28;20540;-86
2022/06/20 11:19:05;;;;;;;12.30;11.40;;;;;;;;;;5073062;28;20798;-86
2022/06/20 11:21:43;;;;;;;175.80;116.97;;;28.80;99.90;;;;;;5072758;28;20877;-83
2022/06/20 11:24:29;;;;;;;5.60;4.30;;;28.70;93.20;;;;;;5076639;28;20445;-86
2022/06/20 11:27:08;;;;;;;8.57;4.27;;;28.30;94.00;;;;;;5076193;28;20450;-85
2022/06/20 11:29:44;;;;;;;5.10;4.60;;;;;;;;;;5076760;28;20825;-86
2022/06/20 11:32:15;;;;;;;230.70;110.43;;;;;;;;;;5078467;28;20457;-87
2022/06/20 11:35:11;;;;;;;4.07;3.63;;;28.50;93.40;;;;;;5077214;28;20445;-86
2022/06/20 11:38:10;;;;;;;4.10;3.50;;;28.80;93.90;;;;;;5070447;28;20462;-85
2022/06/20 11:40:57;;;;;;;3.70;3.30;;;28.40;88.80;;;;;;5076090;28;20505;-85
2022/06/20 11:43:57;;;;;;;4.50;3.63;;;28.50;86.20;;;;;;5076360;28;20851;-85
2022/06/20 11:46:48;;;;;;;5.80;5.30;;;28.80;92.80;;;;;;5076461;28;20511;-86
2022/06/20 11:49:29;;;;;;;4.57;4.10;;;28.40;93.10;;;;;;5073246;28;20457;-86
2022/06/20 11:52:06;;;;;;;5.37;4.87;;;27.60;94.50;;;;;;5074746;28;20454;-88
2022/06/20 11:54:43;;;;;;;9.57;5.23;;;27.30;96.10;;;;;;5076972;28;20456;-89
2022/06/20 11:57:18;;;;;;;6.23;4.70;;;26.90;96.10;;;;;;5077119;28;20460;-87
2022/06/20 11:59:53;;;;;;;7.20;4.60;;;27.30;96.60;;;;;;5076962;28;20448;-84
2022/06/20 12:02:34;;;;;;;9.07;5.00;;;27.90;95.40;;;;;;5077427;28;20842;-85
2022/06/20 12:05:20;;;;;;;7.00;4.97;;;28.10;93.60;;;;;;5072913;28;21014;-85
2022/06/20 12:07:53;;;;;;;5.80;5.00;;;27.90;92.20;;;;;;5076273;28;20591;-86
2022/06/20 12:10:30;;;;;;;3.03;2.50;;;26.90;90.40;;;;;;5076852;28;20831;-87
2022/06/20 12:13:06;;;;;;;6.33;2.97;;;26.70;88.90;;;;;;5076988;28;20449;-84
2022/06/20 12:15:43;;;;;;;4.70;2.57;;;26.60;93.10;;;;;;5076005;28;20823;-87
2022/06/20 12:18:26;;;;;;;4.37;3.30;;;26.20;94.10;;;;;;5077125;28;20822;-86
2022/06/20 12:23:45;;;;;;;3.40;2.70;;;25.50;94.40;;;;;;5076507;28;20467;-86
2022/06/20 12:26:17;;;;;;;3.83;2.80;;;25.50;95.30;;;;;;5077930;28;20446;-86
2022/06/20 12:28:48;;;;;;;3.63;2.60;;;25.50;95.30;;;;;;5076465;28;20442;-90
2022/06/20 12:31:19;;;;;;;3.33;3.03;;;25.20;97.80;;;;;;5077323;28;20465;-87
2022/06/20 12:33:52;;;;;;;6.20;3.53;;;25.10;99.20;;;;;;5075588;28;20457;-84
2022/06/20 12:36:25;;;;;;;3.50;2.70;;;24.80;97.60;;;;;;5078614;28;20503;-85
2022/06/20 12:39:00;;;;;;;3.70;2.87;;;25.10;95.40;;;;;;5077137;28;20452;-87
2022/06/20 12:41:32;;;;;;;3.57;2.13;;;25.00;95.20;;;;;;5077424;28;20516;-89
2022/06/20 12:44:14;;;;;;;2.73;2.37;;;25.60;97.00;;;;;;5076415;28;20967;-85
2022/06/20 12:46:52;;;;;;;3.23;2.53;;;26.50;96.90;;;;;;5093712;28;20450;-86
2022/06/20 12:49:33;;;;;;;4.90;4.00;;;25.60;98.50;;;;;;5093773;28;20503;-85
2022/06/20 12:52:06;;;;;;;8.90;4.37;;;25.30;98.60;;;;;;5076401;28;20516;-85
2022/06/20 12:55:08;;;;;;;9.83;4.70;;;25.70;95.20;;;;;;5075681;28;20461;-87
2022/06/20 12:58:03;;;;;;;9.00;3.97;;;26.00;99.20;;;;;;5075285;28;20464;-85
2022/06/20 13:00:46;;;;;;;5.57;4.23;;;26.00;97.80;;;;;;5077008;28;20959;-86
2022/06/20 13:03:46;;;;;;;5.20;3.97;;;25.50;98.90;;;;;;5071246;28;20525;-87
2022/06/20 13:06:51;;;;;;;6.17;4.03;;;25.40;97.00;;;;;;5075417;28;20453;-84
2022/06/20 13:09:52;;;;;;;7.70;4.23;;;26.00;99.90;;;;;;5083268;27;20474;-85
2022/06/20 13:12:29;;;;;;;4.40;4.00;;;;;;;;;;5063498;28;20444;-84
2022/06/20 13:15:33;;;;;;;5.93;4.70;;;25.30;96.30;;;;;;5095300;28;20448;-84
2022/06/20 13:18:27;;;;;;;7.83;4.70;;;26.00;99.90;;;;;;5095590;28;20559;-86
2022/06/20 13:20:59;;;;;;;9.53;4.90;;;26.00;98.70;;;;;;5095075;28;20456;-88
2022/06/20 13:23:44;;;;;;;6.50;4.83;;;25.00;95.70;;;;;;5094590;28;20990;-86
2022/06/20 13:26:19;;;;;;;9.30;5.50;;;25.70;99.10;;;;;;5095224;28;20447;-85
2022/06/20 13:28:53;;;;;;;8.90;4.83;;;26.50;98.90;;;;;;5094679;28;20437;-85
2022/06/20 13:31:26;;;;;;;6.13;5.50;;;26.80;94.60;;;;;;5093779;28;20468;-87
2022/06/20 13:34:05;;;;;;;7.00;5.67;;;27.00;97.90;;;;;;5087584;28;20445;-88
2022/06/20 13:36:42;;;;;;;7.70;5.60;;;26.90;94.90;;;;;;5081734;28;20484;-86
2022/06/20 13:39:19;;;;;;;7.13;6.13;;;26.20;95.40;;;;;;5093128;28;20452;-86
2022/06/20 13:41:50;;;;;;;6.03;5.47;;;25.50;99.90;;;;;;5093257;28;20496;-86
2022/06/20 13:44:30;;;;;;;6.53;5.80;;;24.70;97.20;;;;;;5090405;28;20441;-86
2022/06/20 13:47:03;;;;;;;6.50;5.33;;;24.40;99.90;;;;;;5073615;28;20450;-85
2022/06/20 13:49:39;;;;;;;8.60;5.97;;;24.00;99.90;;;;;;5071916;28;20438;-85
2022/06/20 13:52:15;;;;;;;9.83;5.37;;;23.90;99.90;;;;;;5072527;28;20827;-86